createdAt,value
2022-11-28T00:00:55.704Z,95688.44
2022-11-28T00:06:09.665Z,95685.53
2022-11-28T00:11:12.501Z,95681.09
2022-11-28T00:16:15.306Z,95670.50
2022-11-28T00:21:18.588Z,95662.66
2022-11-28T00:26:21.315Z,95664.31
2022-11-28T00:31:24.472Z,95671.41
2022-11-28T00:36:27.192Z,95674.22
2022-11-28T00:41:30.299Z,95670.19
2022-11-28T00:46:33.011Z,95672.81
2022-11-28T00:51:35.768Z,95676.19
2022-11-28T00:56:38.407Z,95663.56
2022-11-28T01:01:41.301Z,95664.63
2022-11-28T01:06:44.116Z,95636.25
2022-11-28T01:11:46.880Z,95633.22
2022-11-28T01:16:49.614Z,95631.84
2022-11-28T01:21:52.431Z,95618.66
2022-11-28T01:26:55.183Z,95623.34
2022-11-28T01:31:58.671Z,95625.19
2022-11-28T01:37:01.324Z,95622.78
2022-11-28T01:42:04.049Z,95625.56
2022-11-28T01:47:07.218Z,95618.63
2022-11-28T01:52:09.935Z,95610.13
2022-11-28T01:57:12.559Z,95604.03
2022-11-28T02:02:15.246Z,95594.34
2022-11-28T02:07:18.034Z,95623.38
2022-11-28T02:12:20.777Z,95647.22
2022-11-28T02:17:23.418Z,95629.81
2022-11-28T02:22:26.146Z,95623.91
2022-11-28T02:27:28.881Z,95625.50
2022-11-28T02:32:34.112Z,95606.06
2022-11-28T02:37:36.722Z,95597.50
2022-11-28T02:42:39.728Z,95586.56
2022-11-28T02:47:42.441Z,95578.00
2022-11-28T02:52:45.025Z,95574.81
2022-11-28T02:57:47.813Z,95572.84
2022-11-28T03:02:50.433Z,95559.91
2022-11-28T03:07:53.154Z,95573.97
2022-11-28T03:12:55.841Z,95575.56
2022-11-28T03:17:58.524Z,95573.69
2022-11-28T03:23:01.133Z,95564.16
2022-11-28T03:28:03.690Z,95555.25
2022-11-28T03:33:06.277Z,95550.41
2022-11-28T03:38:08.906Z,95540.25
2022-11-28T03:43:15.513Z,95540.63
2022-11-28T03:48:18.188Z,95538.97
2022-11-28T03:53:20.786Z,95515.91
2022-11-28T03:58:23.426Z,95516.69
2022-11-28T04:03:26.145Z,95510.94
2022-11-28T04:08:28.882Z,95506.13
2022-11-28T04:13:31.463Z,95503.44
2022-11-28T04:18:34.121Z,95500.63
2022-11-28T04:23:36.725Z,95484.34
2022-11-28T04:28:39.774Z,95477.88
2022-11-28T04:33:42.812Z,95479.38
2022-11-28T04:38:49.393Z,95498.59
2022-11-28T04:43:52.037Z,95491.16
2022-11-28T04:48:55.242Z,95492.72
2022-11-28T04:53:57.856Z,95481.59
2022-11-28T04:59:00.463Z,95477.66
2022-11-28T05:04:03.224Z,95471.50
2022-11-28T05:09:05.846Z,95430.50
2022-11-28T05:14:08.473Z,95477.06
2022-11-28T05:19:21.088Z,95503.44
2022-11-28T05:24:27.956Z,95524.22
2022-11-28T05:29:33.401Z,95541.56
2022-11-28T05:34:36.085Z,95544.28
2022-11-28T05:39:38.700Z,95532.72
2022-11-28T05:44:41.389Z,95527.63
2022-11-28T05:49:45.674Z,95525.19
2022-11-28T05:54:49.400Z,95516.63
2022-11-28T05:59:52.085Z,95501.91
2022-11-28T06:04:55.021Z,95490.34
2022-11-28T06:09:57.720Z,95479.31
2022-11-28T06:15:00.327Z,95466.88
2022-11-28T06:20:02.968Z,95484.00
2022-11-28T06:25:05.601Z,95468.22
2022-11-28T06:30:08.668Z,95474.31
2022-11-28T06:35:11.673Z,95477.25
2022-11-28T06:40:14.444Z,95463.53
2022-11-28T06:45:17.087Z,95468.44
2022-11-28T06:50:19.693Z,95458.59
2022-11-28T06:55:22.389Z,95456.31
2022-11-28T07:00:24.997Z,95451.72
2022-11-28T07:05:27.820Z,95449.41
2022-11-28T07:10:30.451Z,95459.97
2022-11-28T07:15:33.151Z,95434.75
2022-11-28T07:20:38.170Z,95466.06
2022-11-28T07:25:40.772Z,95454.53
2022-11-28T07:30:43.455Z,95478.78
2022-11-28T07:35:46.070Z,95479.84
2022-11-28T07:40:48.673Z,95450.66
2022-11-28T07:46:01.099Z,95442.16
2022-11-28T07:51:07.139Z,95424.84
2022-11-28T07:56:09.757Z,95436.03
2022-11-28T08:01:12.376Z,95424.94
2022-11-28T08:06:15.007Z,95419.28
2022-11-28T08:11:17.617Z,95415.56
2022-11-28T08:16:21.513Z,95414.16
2022-11-28T08:21:24.340Z,95426.16
2022-11-28T08:26:30.432Z,95437.72
2022-11-28T08:31:33.556Z,95441.28
2022-11-28T08:36:36.540Z,95434.94
2022-11-28T08:41:39.340Z,95431.81
2022-11-28T08:46:42.249Z,95417.91
2022-11-28T08:51:44.857Z,95423.25
2022-11-28T08:56:47.473Z,95425.34
2022-11-28T09:01:50.099Z,95415.72
2022-11-28T09:06:53.079Z,95451.38
2022-11-28T09:11:55.679Z,95436.69
2022-11-28T09:16:58.516Z,95445.81
2022-11-28T09:22:01.209Z,95439.25
2022-11-28T09:27:03.902Z,95439.44
2022-11-28T09:32:06.611Z,95439.44
2022-11-28T09:37:09.824Z,95446.72
2022-11-28T09:42:12.625Z,95431.47
2022-11-28T09:47:15.235Z,95427.84
2022-11-28T09:52:17.944Z,95422.28
2022-11-28T09:57:20.571Z,95426.97
2022-11-28T10:02:23.430Z,95423.50
2022-11-28T10:07:26.169Z,95419.72
2022-11-28T10:12:28.851Z,95419.69
2022-11-28T10:17:31.519Z,95419.94
2022-11-28T10:22:34.158Z,95417.59
2022-11-28T10:27:37.213Z,95418.19
2022-11-28T10:32:39.945Z,95413.25
2022-11-28T10:37:44.166Z,95411.69
2022-11-28T10:42:46.924Z,95412.78
2022-11-28T10:47:49.989Z,95401.44
2022-11-28T10:52:53.176Z,95400.72
2022-11-28T10:57:57.781Z,95402.50
2022-11-28T11:03:02.373Z,95394.19
2022-11-28T11:08:07.726Z,95397.34
2022-11-28T11:13:10.867Z,95392.34
2022-11-28T11:18:14.058Z,95393.50
2022-11-28T11:23:17.611Z,95395.91
2022-11-28T11:28:20.725Z,95396.00
2022-11-28T11:33:23.854Z,95392.38
2022-11-28T11:38:27.017Z,95394.59
2022-11-28T11:43:30.099Z,95387.34
2022-11-28T11:48:33.361Z,95384.59
2022-11-28T11:53:36.596Z,95384.13
2022-11-28T11:58:39.773Z,95378.44
2022-11-28T12:03:43.022Z,95377.16
2022-11-28T12:08:46.592Z,95370.44
2022-11-28T12:13:49.741Z,95370.44
2022-11-28T12:18:54.061Z,95371.25
2022-11-28T12:23:57.170Z,95373.16
2022-11-28T12:29:00.274Z,95377.38
2022-11-28T12:34:03.398Z,95374.66
2022-11-28T12:39:06.608Z,95371.09
2022-11-28T12:44:10.397Z,95370.50
2022-11-28T12:49:14.252Z,95371.34
2022-11-28T12:54:17.342Z,95375.13
2022-11-28T12:59:21.363Z,95376.34
2022-11-28T13:04:24.989Z,95374.91
2022-11-28T13:09:28.488Z,95366.25
2022-11-28T13:14:31.560Z,95369.84
2022-11-28T13:19:34.613Z,95384.25
2022-11-28T13:24:37.730Z,95375.66
2022-11-28T13:29:40.872Z,95381.50
2022-11-28T13:34:44.206Z,95378.28
2022-11-28T13:39:48.076Z,95381.50
2022-11-28T13:44:51.450Z,95378.81
2022-11-28T13:49:54.521Z,95382.34
2022-11-28T13:54:57.952Z,95373.75
2022-11-28T14:00:01.401Z,95374.34
2022-11-28T14:05:04.476Z,95376.97
2022-11-28T14:10:07.612Z,95372.44
2022-11-28T14:15:11.151Z,95371.31
2022-11-28T14:20:20.480Z,95374.44
2022-11-28T14:25:23.765Z,95372.03
2022-11-28T14:30:26.902Z,95368.31
2022-11-28T14:35:30.032Z,95372.53
2022-11-28T14:40:43.928Z,95373.53
2022-11-28T14:45:47.027Z,95376.25
2022-11-28T14:50:51.669Z,95378.94
2022-11-28T14:55:57.789Z,95381.91
2022-11-28T15:01:02.357Z,95383.25
2022-11-28T15:06:05.530Z,95377.31
2022-11-28T15:11:08.775Z,95376.78
2022-11-28T15:16:12.542Z,95372.25
2022-11-28T15:21:16.201Z,95378.72
2022-11-28T15:26:19.472Z,95381.72
2022-11-28T15:31:22.780Z,95377.28
2022-11-28T15:36:26.054Z,95371.94
2022-11-28T15:41:29.213Z,95371.88
2022-11-28T15:46:32.561Z,95371.44
2022-11-28T15:51:36.155Z,95366.88
2022-11-28T15:56:39.442Z,95368.19
2022-11-28T16:01:42.878Z,95366.13
2022-11-28T16:06:46.056Z,95361.38
2022-11-28T16:11:49.241Z,95363.47
2022-11-28T16:16:52.375Z,95368.72
2022-11-28T16:21:55.531Z,95362.00
2022-11-28T16:26:59.848Z,95358.66
2022-11-28T16:32:05.275Z,95356.44
2022-11-28T16:37:08.464Z,95363.34
2022-11-28T16:42:11.600Z,95358.53
2022-11-28T16:47:14.761Z,95368.91
2022-11-28T16:52:17.927Z,95372.06
2022-11-28T16:57:21.075Z,95364.97
2022-11-28T17:02:24.559Z,95365.88
2022-11-28T17:07:27.821Z,95361.97
2022-11-28T17:12:30.999Z,95357.28
2022-11-28T17:17:34.194Z,95357.50
2022-11-28T17:22:40.719Z,95359.25
2022-11-28T17:27:44.576Z,95362.13
2022-11-28T17:32:49.004Z,95357.94
2022-11-28T17:37:52.236Z,95365.50
2022-11-28T17:42:55.387Z,95365.63
2022-11-28T17:47:58.492Z,95368.03
2022-11-28T17:53:02.752Z,95368.53
2022-11-28T17:58:05.827Z,95373.06
2022-11-28T18:03:09.344Z,95377.09
2022-11-28T18:08:12.520Z,95380.28
2022-11-28T18:13:17.652Z,95376.72
2022-11-28T18:18:20.881Z,95377.44
2022-11-28T18:23:24.030Z,95376.78
2022-11-28T18:28:27.190Z,95373.94
2022-11-28T18:33:30.395Z,95376.97
2022-11-28T18:38:33.585Z,95364.63
2022-11-28T18:43:36.733Z,95371.09
2022-11-28T18:48:39.907Z,95369.78
2022-11-28T18:53:43.102Z,95371.31
2022-11-28T18:58:46.339Z,95378.81
2022-11-28T19:03:49.473Z,95368.97
2022-11-28T19:08:52.580Z,95381.09
2022-11-28T19:13:55.739Z,95383.41
2022-11-28T19:18:58.828Z,95386.50
2022-11-28T19:24:02.036Z,95392.25
2022-11-28T19:29:05.159Z,95390.06
2022-11-28T19:34:08.359Z,95396.75
2022-11-28T19:39:11.506Z,95398.13
2022-11-28T19:44:14.584Z,95399.72
2022-11-28T19:49:17.738Z,95397.00
2022-11-28T19:54:21.056Z,95400.25
2022-11-28T19:59:24.764Z,95400.84
2022-11-28T20:04:28.316Z,95401.66
2022-11-28T20:09:32.536Z,95413.34
2022-11-28T20:14:35.615Z,95425.84
2022-11-28T20:19:39.192Z,95429.06
2022-11-28T20:24:43.493Z,95427.28
2022-11-28T20:29:47.629Z,95432.69
2022-11-28T20:34:50.763Z,95432.22
2022-11-28T20:39:53.849Z,95430.91
2022-11-28T20:44:56.942Z,95431.25
2022-11-28T20:50:00.219Z,95432.69
2022-11-28T20:55:03.370Z,95432.06
2022-11-28T21:00:07.083Z,95436.47
2022-11-28T21:05:10.596Z,95435.69
2022-11-28T21:10:13.779Z,95436.16
2022-11-28T21:15:16.908Z,95431.44
2022-11-28T21:20:20.429Z,95427.72
2022-11-28T21:25:24.346Z,95436.41
2022-11-28T21:30:27.439Z,95439.63
2022-11-28T21:35:30.546Z,95434.94
2022-11-28T21:40:33.204Z,95441.16
2022-11-28T21:45:35.858Z,95438.03
2022-11-28T21:50:38.781Z,95440.78
2022-11-28T21:55:41.520Z,95440.59
2022-11-28T22:00:55.542Z,95442.84
2022-11-28T22:05:58.731Z,95436.56
2022-11-28T22:11:04.258Z,95436.00
2022-11-28T22:16:07.442Z,95444.63
2022-11-28T22:21:49.484Z,95442.44
2022-11-28T22:26:33.437Z,95452.53
2022-11-28T22:31:36.193Z,95441.16
2022-11-28T22:36:38.968Z,95444.91
2022-11-28T22:41:41.551Z,95443.31
2022-11-28T22:46:44.205Z,95438.16
2022-11-28T22:51:46.850Z,95443.47
2022-11-28T22:56:49.495Z,95449.19
2022-11-28T23:01:52.309Z,95439.25
2022-11-28T23:06:55.125Z,95447.03
2022-11-28T23:11:58.630Z,95440.06
2022-11-28T23:17:01.378Z,95433.94
2022-11-28T23:22:04.619Z,95434.69
2022-11-28T23:27:07.372Z,95436.84
2022-11-28T23:32:10.107Z,95437.63
2022-11-28T23:37:12.821Z,95433.13
2022-11-28T23:42:15.463Z,95438.19
2022-11-28T23:47:18.368Z,95439.25
2022-11-28T23:52:21.001Z,95443.28
2022-11-28T23:57:23.757Z,95440.56
